sensor_id;sensor_type;location;lat;lon;timestamp;pressure;altitude;pressure_sealevel;temperature;humidity
24858;BME280;12935;50.782;6.074;2023-12-04T00:02:10;99158.44;;;3.03;90.34
24858;BME280;12935;50.782;6.074;2023-12-04T00:04:35;99153.47;;;3.05;91.07
24858;BME280;12935;50.782;6.074;2023-12-04T00:07:01;99151.19;;;3.07;88.90
24858;BME280;12935;50.782;6.074;2023-12-04T00:09:27;99150.19;;;2.96;89.03
24858;BME280;12935;50.782;6.074;2023-12-04T00:11:53;99140.13;;;2.77;91.92
24858;BME280;12935;50.782;6.074;2023-12-04T00:14:18;99129.75;;;2.79;90.01
24858;BME280;12935;50.782;6.074;2023-12-04T00:16:44;99136.78;;;2.83;90.64
24858;BME280;12935;50.782;6.074;2023-12-04T00:19:10;99122.88;;;2.81;88.67
24858;BME280;12935;50.782;6.074;2023-12-04T00:21:35;99135.03;;;2.91;89.96
24858;BME280;12935;50.782;6.074;2023-12-04T00:24:01;99134.06;;;2.99;88.50
24858;BME280;12935;50.782;6.074;2023-12-04T00:26:26;99123.00;;;3.04;88.91
24858;BME280;12935;50.782;6.074;2023-12-04T00:28:52;99127.63;;;3.04;88.23
24858;BME280;12935;50.782;6.074;2023-12-04T00:31:17;99125.34;;;3.06;89.64
24858;BME280;12935;50.782;6.074;2023-12-04T00:33:43;99126.81;;;3.03;88.70
24858;BME280;12935;50.782;6.074;2023-12-04T00:36:09;99115.75;;;3.08;88.23
24858;BME280;12935;50.782;6.074;2023-12-04T00:38:35;99106.03;;;3.04;87.68
24858;BME280;12935;50.782;6.074;2023-12-04T00:41:00;99105.88;;;2.97;88.43
24858;BME280;12935;50.782;6.074;2023-12-04T00:43:26;99108.50;;;2.93;92.11
24858;BME280;12935;50.782;6.074;2023-12-04T00:45:51;99106.56;;;2.94;93.96
24858;BME280;12935;50.782;6.074;2023-12-04T00:48:17;99098.47;;;2.94;93.00
24858;BME280;12935;50.782;6.074;2023-12-04T00:50:42;99088.81;;;2.93;92.80
24858;BME280;12935;50.782;6.074;2023-12-04T00:53:08;99082.88;;;3.03;92.93
24858;BME280;12935;50.782;6.074;2023-12-04T00:55:34;99087.69;;;2.94;94.06
24858;BME280;12935;50.782;6.074;2023-12-04T00:57:59;99084.22;;;2.93;93.37
24858;BME280;12935;50.782;6.074;2023-12-04T01:00:25;99075.75;;;2.95;94.86
24858;BME280;12935;50.782;6.074;2023-12-04T01:02:51;99082.81;;;2.83;96.74
24858;BME280;12935;50.782;6.074;2023-12-04T01:05:17;99072.56;;;2.89;97.85
24858;BME280;12935;50.782;6.074;2023-12-04T01:07:42;99081.94;;;2.95;97.22
24858;BME280;12935;50.782;6.074;2023-12-04T01:10:08;99077.38;;;2.99;98.52
24858;BME280;12935;50.782;6.074;2023-12-04T01:12:34;99085.47;;;2.99;99.44
24858;BME280;12935;50.782;6.074;2023-12-04T01:15:01;99073.56;;;3.00;99.08
24858;BME280;12935;50.782;6.074;2023-12-04T01:17:26;99068.09;;;2.97;100.00
24858;BME280;12935;50.782;6.074;2023-12-04T01:19:52;99064.63;;;2.96;100.00
24858;BME280;12935;50.782;6.074;2023-12-04T01:22:17;99060.28;;;2.92;100.00
24858;BME280;12935;50.782;6.074;2023-12-04T01:24:43;99058.78;;;2.94;100.00
24858;BME280;12935;50.782;6.074;2023-12-04T01:27:09;99055.03;;;2.99;100.00
24858;BME280;12935;50.782;6.074;2023-12-04T01:29:34;99049.66;;;2.99;100.00
24858;BME280;12935;50.782;6.074;2023-12-04T01:32:00;99048.47;;;3.00;100.00
24858;BME280;12935;50.782;6.074;2023-12-04T01:34:25;99040.34;;;2.96;100.00
24858;BME280;12935;50.782;6.074;2023-12-04T01:36:50;99046.50;;;2.97;100.00
24858;BME280;12935;50.782;6.074;2023-12-04T01:39:16;99043.31;;;2.91;100.00
24858;BME280;12935;50.782;6.074;2023-12-04T01:41:42;99037.13;;;2.91;100.00
24858;BME280;12935;50.782;6.074;2023-12-04T01:44:07;99034.00;;;2.89;100.00
24858;BME280;12935;50.782;6.074;2023-12-04T01:46:32;99035.03;;;2.84;100.00
24858;BME280;12935;50.782;6.074;2023-12-04T01:48:58;99039.53;;;2.76;100.00
24858;BME280;12935;50.782;6.074;2023-12-04T01:51:26;99033.56;;;2.67;100.00
24858;BME280;12935;50.782;6.074;2023-12-04T01:53:52;99021.97;;;2.67;100.00
24858;BME280;12935;50.782;6.074;2023-12-04T01:56:19;99024.91;;;2.77;100.00
24858;BME280;12935;50.782;6.074;2023-12-04T01:58:45;99023.78;;;2.78;100.00
24858;BME280;12935;50.782;6.074;2023-12-04T02:01:11;99017.25;;;2.79;100.00
24858;BME280;12935;50.782;6.074;2023-12-04T02:03:37;99023.28;;;2.92;100.00
24858;BME280;12935;50.782;6.074;2023-12-04T02:06:02;99026.84;;;2.96;100.00
24858;BME280;12935;50.782;6.074;2023-12-04T02:08:29;99018.75;;;2.96;100.00
24858;BME280;12935;50.782;6.074;2023-12-04T02:10:55;99017.88;;;2.92;100.00
24858;BME280;12935;50.782;6.074;2023-12-04T02:13:21;99011.09;;;2.98;100.00
24858;BME280;12935;50.782;6.074;2023-12-04T02:15:49;99011.88;;;2.99;100.00
24858;BME280;12935;50.782;6.074;2023-12-04T02:18:16;98993.59;;;2.92;100.00
24858;BME280;12935;50.782;6.074;2023-12-04T02:20:42;98996.72;;;2.94;100.00
24858;BME280;12935;50.782;6.074;2023-12-04T02:23:08;98995.88;;;2.90;100.00
24858;BME280;12935;50.782;6.074;2023-12-04T02:25:33;98996.31;;;2.92;100.00
24858;BME280;12935;50.782;6.074;2023-12-04T02:28:01;98993.81;;;3.03;100.00
24858;BME280;12935;50.782;6.074;2023-12-04T02:30:29;98999.72;;;3.08;100.00
24858;BME280;12935;50.782;6.074;2023-12-04T02:32:57;98990.84;;;3.08;100.00
24858;BME280;12935;50.782;6.074;2023-12-04T02:35:26;98997.53;;;3.14;100.00
24858;BME280;12935;50.782;6.074;2023-12-04T02:37:53;98987.84;;;3.13;100.00
24858;BME280;12935;50.782;6.074;2023-12-04T02:40:19;98983.63;;;3.15;100.00
24858;BME280;12935;50.782;6.074;2023-12-04T02:42:45;98977.06;;;3.13;100.00
24858;BME280;12935;50.782;6.074;2023-12-04T02:45:10;98970.13;;;3.15;100.00
24858;BME280;12935;50.782;6.074;2023-12-04T02:47:36;98969.31;;;3.11;100.00
24858;BME280;12935;50.782;6.074;2023-12-04T02:50:02;98971.50;;;3.06;100.00
24858;BME280;12935;50.782;6.074;2023-12-04T02:52:28;98959.16;;;3.05;100.00
24858;BME280;12935;50.782;6.074;2023-12-04T02:54:53;98959.31;;;3.12;100.00
24858;BME280;12935;50.782;6.074;2023-12-04T02:57:19;98957.31;;;3.09;100.00
24858;BME280;12935;50.782;6.074;2023-12-04T02:59:45;98956.19;;;3.10;96.97
24858;BME280;12935;50.782;6.074;2023-12-04T03:02:11;98949.72;;;3.14;98.29
24858;BME280;12935;50.782;6.074;2023-12-04T03:04:36;98949.22;;;3.09;98.26
24858;BME280;12935;50.782;6.074;2023-12-04T03:07:02;98945.38;;;3.10;100.00
24858;BME280;12935;50.782;6.074;2023-12-04T03:09:28;98945.81;;;3.12;99.06
24858;BME280;12935;50.782;6.074;2023-12-04T03:11:53;98940.88;;;3.17;99.65
24858;BME280;12935;50.782;6.074;2023-12-04T03:14:19;98930.03;;;3.14;97.87
24858;BME280;12935;50.782;6.074;2023-12-04T03:16:45;98928.06;;;3.11;97.06
24858;BME280;12935;50.782;6.074;2023-12-04T03:19:10;98921.19;;;3.17;95.63
24858;BME280;12935;50.782;6.074;2023-12-04T03:21:36;98922.06;;;3.21;92.60
24858;BME280;12935;50.782;6.074;2023-12-04T03:24:01;98913.06;;;3.13;92.10
24858;BME280;12935;50.782;6.074;2023-12-04T03:26:26;98904.28;;;3.20;92.69
24858;BME280;12935;50.782;6.074;2023-12-04T03:28:52;98912.47;;;3.24;92.03
24858;BME280;12935;50.782;6.074;2023-12-04T03:31:17;98917.25;;;3.11;90.42
24858;BME280;12935;50.782;6.074;2023-12-04T03:33:43;98903.97;;;3.02;91.13
24858;BME280;12935;50.782;6.074;2023-12-04T03:36:08;98917.00;;;3.20;90.80
24858;BME280;12935;50.782;6.074;2023-12-04T03:38:33;98912.41;;;3.20;91.47
24858;BME280;12935;50.782;6.074;2023-12-04T03:40:59;98911.19;;;3.17;91.53
24858;BME280;12935;50.782;6.074;2023-12-04T03:43:24;98905.75;;;3.14;90.50
24858;BME280;12935;50.782;6.074;2023-12-04T03:45:50;98898.13;;;3.20;90.22
24858;BME280;12935;50.782;6.074;2023-12-04T03:48:15;98887.75;;;3.22;91.43
24858;BME280;12935;50.782;6.074;2023-12-04T03:50:41;98888.53;;;3.22;91.62
24858;BME280;12935;50.782;6.074;2023-12-04T03:53:06;98874.38;;;3.29;92.14
24858;BME280;12935;50.782;6.074;2023-12-04T03:55:32;98880.19;;;3.31;91.40
24858;BME280;12935;50.782;6.074;2023-12-04T03:57:58;98869.00;;;3.32;87.96
24858;BME280;12935;50.782;6.074;2023-12-04T04:00:24;98873.41;;;3.17;86.10
24858;BME280;12935;50.782;6.074;2023-12-04T04:02:50;98862.25;;;3.19;86.42
24858;BME280;12935;50.782;6.074;2023-12-04T04:05:16;98861.94;;;3.24;86.94
24858;BME280;12935;50.782;6.074;2023-12-04T04:07:41;98854.06;;;3.15;83.57
24858;BME280;12935;50.782;6.074;2023-12-04T04:10:08;98854.94;;;3.20;85.03
24858;BME280;12935;50.782;6.074;2023-12-04T04:12:33;98856.06;;;3.18;84.97
24858;BME280;12935;50.782;6.074;2023-12-04T04:14:59;98852.66;;;3.22;83.22
24858;BME280;12935;50.782;6.074;2023-12-04T04:17:25;98850.66;;;3.18;83.12
24858;BME280;12935;50.782;6.074;2023-12-04T04:19:52;98851.34;;;3.12;82.16
24858;BME280;12935;50.782;6.074;2023-12-04T04:22:19;98843.59;;;3.10;80.88
24858;BME280;12935;50.782;6.074;2023-12-04T04:24:44;98845.25;;;3.18;79.19
24858;BME280;12935;50.782;6.074;2023-12-04T04:27:10;98840.91;;;3.10;77.35
24858;BME280;12935;50.782;6.074;2023-12-04T04:29:35;98852.28;;;3.00;75.54
24858;BME280;12935;50.782;6.074;2023-12-04T04:32:01;98846.72;;;3.12;74.75
24858;BME280;12935;50.782;6.074;2023-12-04T04:34:26;98843.66;;;3.14;71.09
24858;BME280;12935;50.782;6.074;2023-12-04T04:36:51;98838.50;;;3.05;65.98
24858;BME280;12935;50.782;6.074;2023-12-04T04:39:16;98841.53;;;3.04;65.66
24858;BME280;12935;50.782;6.074;2023-12-04T04:41:42;98838.97;;;3.11;62.34
24858;BME280;12935;50.782;6.074;2023-12-04T04:44:07;98827.06;;;3.12;60.10
24858;BME280;12935;50.782;6.074;2023-12-04T04:46:32;98829.19;;;3.03;59.85
24858;BME280;12935;50.782;6.074;2023-12-04T04:48:58;98829.53;;;3.01;57.99
24858;BME280;12935;50.782;6.074;2023-12-04T04:51:24;98820.66;;;3.01;58.30
24858;BME280;12935;50.782;6.074;2023-12-04T04:53:49;98827.34;;;3.07;55.66
24858;BME280;12935;50.782;6.074;2023-12-04T04:56:15;98813.06;;;3.06;55.46
24858;BME280;12935;50.782;6.074;2023-12-04T04:58:41;98817.63;;;3.02;55.71
24858;BME280;12935;50.782;6.074;2023-12-04T05:01:07;98814.97;;;3.06;55.60
24858;BME280;12935;50.782;6.074;2023-12-04T05:03:33;98810.97;;;3.19;54.03
24858;BME280;12935;50.782;6.074;2023-12-04T05:05:59;98809.81;;;3.20;55.63
24858;BME280;12935;50.782;6.074;2023-12-04T05:08:24;98804.84;;;3.22;54.46
24858;BME280;12935;50.782;6.074;2023-12-04T05:10:50;98815.94;;;3.17;54.57
24858;BME280;12935;50.782;6.074;2023-12-04T05:13:17;98808.97;;;3.16;54.07
24858;BME280;12935;50.782;6.074;2023-12-04T05:15:42;98809.38;;;3.14;54.25
24858;BME280;12935;50.782;6.074;2023-12-04T05:18:08;98800.09;;;3.15;54.90
24858;BME280;12935;50.782;6.074;2023-12-04T05:20:33;98811.66;;;3.16;55.01
24858;BME280;12935;50.782;6.074;2023-12-04T05:22:59;98792.75;;;3.12;54.38
24858;BME280;12935;50.782;6.074;2023-12-04T05:25:25;98803.19;;;3.14;55.98
24858;BME280;12935;50.782;6.074;2023-12-04T05:27:50;98789.19;;;3.08;55.22
24858;BME280;12935;50.782;6.074;2023-12-04T05:30:16;98781.97;;;3.16;55.02
24858;BME280;12935;50.782;6.074;2023-12-04T05:32:41;98781.31;;;3.23;55.66
24858;BME280;12935;50.782;6.074;2023-12-04T05:35:07;98773.72;;;3.28;57.19
24858;BME280;12935;50.782;6.074;2023-12-04T05:37:33;98772.56;;;3.29;57.01
24858;BME280;12935;50.782;6.074;2023-12-04T05:39:58;98766.47;;;3.36;55.70
24858;BME280;12935;50.782;6.074;2023-12-04T05:42:24;98769.13;;;3.32;56.42
24858;BME280;12935;50.782;6.074;2023-12-04T05:44:49;98758.69;;;3.31;55.96
24858;BME280;12935;50.782;6.074;2023-12-04T05:47:15;98750.66;;;3.34;55.08
24858;BME280;12935;50.782;6.074;2023-12-04T05:49:40;98750.28;;;3.36;54.97
24858;BME280;12935;50.782;6.074;2023-12-04T05:52:06;98745.78;;;3.43;53.05
24858;BME280;12935;50.782;6.074;2023-12-04T05:54:32;98736.53;;;3.44;52.61
24858;BME280;12935;50.782;6.074;2023-12-04T05:56:58;98732.31;;;3.47;52.87
24858;BME280;12935;50.782;6.074;2023-12-04T05:59:24;98727.75;;;3.51;53.93
24858;BME280;12935;50.782;6.074;2023-12-04T06:01:49;98723.47;;;3.50;53.22
24858;BME280;12935;50.782;6.074;2023-12-04T06:04:15;98719.63;;;3.51;53.70
24858;BME280;12935;50.782;6.074;2023-12-04T06:06:40;98714.66;;;3.53;52.96
24858;BME280;12935;50.782;6.074;2023-12-04T06:09:06;98712.69;;;3.50;52.51
24858;BME280;12935;50.782;6.074;2023-12-04T06:11:31;98704.28;;;3.55;52.89
24858;BME280;12935;50.782;6.074;2023-12-04T06:13:57;98707.69;;;3.52;52.41
24858;BME280;12935;50.782;6.074;2023-12-04T06:16:22;98708.59;;;3.63;53.67
24858;BME280;12935;50.782;6.074;2023-12-04T06:18:48;98703.63;;;3.65;52.35
24858;BME280;12935;50.782;6.074;2023-12-04T06:21:13;98708.41;;;3.75;51.53
24858;BME280;12935;50.782;6.074;2023-12-04T06:23:39;98706.84;;;3.74;52.38
24858;BME280;12935;50.782;6.074;2023-12-04T06:26:05;98700.66;;;3.74;52.35
24858;BME280;12935;50.782;6.074;2023-12-04T06:28:31;98709.13;;;3.72;53.46
24858;BME280;12935;50.782;6.074;2023-12-04T06:30:58;98703.00;;;3.79;54.07
24858;BME280;12935;50.782;6.074;2023-12-04T06:33:24;98710.75;;;3.80;53.88
24858;BME280;12935;50.782;6.074;2023-12-04T06:35:49;98702.66;;;3.80;54.07
24858;BME280;12935;50.782;6.074;2023-12-04T06:38:15;98699.94;;;3.80;53.79
24858;BME280;12935;50.782;6.074;2023-12-04T06:40:41;98702.69;;;3.84;55.63
24858;BME280;12935;50.782;6.074;2023-12-04T06:43:07;98689.59;;;3.86;55.37
24858;BME280;12935;50.782;6.074;2023-12-04T06:45:33;98696.56;;;3.87;54.35
24858;BME280;12935;50.782;6.074;2023-12-04T06:47:59;98705.09;;;3.89;53.00
24858;BME280;12935;50.782;6.074;2023-12-04T06:50:26;98685.09;;;3.97;54.66
24858;BME280;12935;50.782;6.074;2023-12-04T06:52:52;98696.41;;;4.06;52.47
24858;BME280;12935;50.782;6.074;2023-12-04T06:55:17;98698.34;;;4.09;52.61
24858;BME280;12935;50.782;6.074;2023-12-04T06:57:43;98699.91;;;4.10;52.67
24858;BME280;12935;50.782;6.074;2023-12-04T07:00:09;98680.63;;;4.12;52.62
24858;BME280;12935;50.782;6.074;2023-12-04T07:02:38;98696.34;;;4.03;51.37
24858;BME280;12935;50.782;6.074;2023-12-04T07:05:04;98687.09;;;4.04;52.22
24858;BME280;12935;50.782;6.074;2023-12-04T07:07:29;98696.06;;;4.11;51.78
24858;BME280;12935;50.782;6.074;2023-12-04T07:09:54;98679.81;;;4.08;50.26
24858;BME280;12935;50.782;6.074;2023-12-04T07:12:20;98688.81;;;4.19;49.82
24858;BME280;12935;50.782;6.074;2023-12-04T07:14:45;98687.31;;;4.25;50.03
24858;BME280;12935;50.782;6.074;2023-12-04T07:17:11;98687.03;;;4.34;49.19
24858;BME280;12935;50.782;6.074;2023-12-04T07:19:37;98689.31;;;4.32;49.24
24858;BME280;12935;50.782;6.074;2023-12-04T07:22:03;98689.78;;;4.37;48.52
24858;BME280;12935;50.782;6.074;2023-12-04T07:24:29;98675.34;;;4.26;49.18
24858;BME280;12935;50.782;6.074;2023-12-04T07:26:54;98684.31;;;4.34;49.42
24858;BME280;12935;50.782;6.074;2023-12-04T07:29:20;98680.09;;;4.36;49.22
24858;BME280;12935;50.782;6.074;2023-12-04T07:31:45;98674.00;;;4.46;49.55
24858;BME280;12935;50.782;6.074;2023-12-04T07:34:11;98669.75;;;4.45;48.94
24858;BME280;12935;50.782;6.074;2023-12-04T07:36:36;98674.81;;;4.50;48.71
24858;BME280;12935;50.782;6.074;2023-12-04T07:39:02;98675.53;;;4.44;49.10
24858;BME280;12935;50.782;6.074;2023-12-04T07:41:31;98677.44;;;4.43;49.32
24858;BME280;12935;50.782;6.074;2023-12-04T07:43:56;98675.88;;;4.39;49.78
24858;BME280;12935;50.782;6.074;2023-12-04T07:46:22;98673.94;;;4.39;50.38
24858;BME280;12935;50.782;6.074;2023-12-04T07:48:47;98668.84;;;4.31;51.67
24858;BME280;12935;50.782;6.074;2023-12-04T07:51:12;98652.16;;;4.25;51.44
24858;BME280;12935;50.782;6.074;2023-12-04T07:53:38;98657.69;;;4.36;52.15
24858;BME280;12935;50.782;6.074;2023-12-04T07:56:04;98659.16;;;4.30;52.83
24858;BME280;12935;50.782;6.074;2023-12-04T07:58:30;98652.94;;;4.22;52.76
24858;BME280;12935;50.782;6.074;2023-12-04T08:00:57;98651.31;;;4.17;53.13
24858;BME280;12935;50.782;6.074;2023-12-04T08:03:22;98649.84;;;4.23;53.51
24858;BME280;12935;50.782;6.074;2023-12-04T08:05:52;98649.84;;;4.23;53.62
24858;BME280;12935;50.782;6.074;2023-12-04T08:08:17;98648.34;;;4.30;54.34
24858;BME280;12935;50.782;6.074;2023-12-04T08:10:43;98649.47;;;4.25;54.54
24858;BME280;12935;50.782;6.074;2023-12-04T08:13:08;98651.47;;;4.32;55.22
24858;BME280;12935;50.782;6.074;2023-12-04T08:15:34;98649.91;;;4.31;55.49
24858;BME280;12935;50.782;6.074;2023-12-04T08:17:59;98639.09;;;4.31;55.51
24858;BME280;12935;50.782;6.074;2023-12-04T08:20:26;98643.34;;;4.32;56.43
24858;BME280;12935;50.782;6.074;2023-12-04T08:22:54;98637.94;;;4.32;57.10
24858;BME280;12935;50.782;6.074;2023-12-04T08:25:20;98634.47;;;4.31;57.72
24858;BME280;12935;50.782;6.074;2023-12-04T08:27:46;98627.50;;;4.30;58.01
24858;BME280;12935;50.782;6.074;2023-12-04T08:30:11;98632.47;;;4.25;58.53
24858;BME280;12935;50.782;6.074;2023-12-04T08:32:38;98631.25;;;4.18;58.55
24858;BME280;12935;50.782;6.074;2023-12-04T08:35:04;98624.63;;;4.12;58.94
24858;BME280;12935;50.782;6.074;2023-12-04T08:37:31;98631.59;;;4.13;60.18
24858;BME280;12935;50.782;6.074;2023-12-04T08:39:57;98624.22;;;4.10;60.39
24858;BME280;12935;50.782;6.074;2023-12-04T08:42:22;98621.56;;;4.14;60.96
24858;BME280;12935;50.782;6.074;2023-12-04T08:44:48;98627.78;;;4.18;60.28
24858;BME280;12935;50.782;6.074;2023-12-04T08:47:13;98616.16;;;4.14;60.39
24858;BME280;12935;50.782;6.074;2023-12-04T08:49:40;98607.25;;;4.13;61.26
24858;BME280;12935;50.782;6.074;2023-12-04T08:52:06;98606.47;;;4.13;60.90
24858;BME280;12935;50.782;6.074;2023-12-04T08:54:33;98609.22;;;4.16;61.33
24858;BME280;12935;50.782;6.074;2023-12-04T08:56:59;98611.88;;;4.13;61.84
24858;BME280;12935;50.782;6.074;2023-12-04T08:59:25;98605.69;;;4.12;61.50
24858;BME280;12935;50.782;6.074;2023-12-04T09:01:50;98609.47;;;4.01;62.11
24858;BME280;12935;50.782;6.074;2023-12-04T09:04:16;98602.13;;;4.01;63.29
24858;BME280;12935;50.782;6.074;2023-12-04T09:06:41;98606.78;;;4.04;63.91
24858;BME280;12935;50.782;6.074;2023-12-04T09:09:07;98601.31;;;3.97;64.89
24858;BME280;12935;50.782;6.074;2023-12-04T09:11:33;98592.84;;;3.99;65.91
24858;BME280;12935;50.782;6.074;2023-12-04T09:13:58;98599.44;;;4.01;66.15
24858;BME280;12935;50.782;6.074;2023-12-04T09:16:24;98592.88;;;4.02;67.30
24858;BME280;12935;50.782;6.074;2023-12-04T09:18:49;98597.13;;;4.03;67.98
24858;BME280;12935;50.782;6.074;2023-12-04T09:21:15;98598.28;;;4.02;68.04
24858;BME280;12935;50.782;6.074;2023-12-04T09:23:40;98592.84;;;3.99;69.85
24858;BME280;12935;50.782;6.074;2023-12-04T09:26:06;98591.28;;;3.98;71.05
24858;BME280;12935;50.782;6.074;2023-12-04T09:28:32;98583.56;;;4.00;72.13
24858;BME280;12935;50.782;6.074;2023-12-04T09:30:57;98580.53;;;4.05;72.30
24858;BME280;12935;50.782;6.074;2023-12-04T09:33:23;98588.69;;;4.08;72.91
24858;BME280;12935;50.782;6.074;2023-12-04T09:35:48;98587.13;;;4.07;73.33
24858;BME280;12935;50.782;6.074;2023-12-04T09:38:14;98589.06;;;4.10;73.17
24858;BME280;12935;50.782;6.074;2023-12-04T09:40:39;98582.94;;;4.13;74.01
24858;BME280;12935;50.782;6.074;2023-12-04T09:43:05;98581.81;;;4.18;74.25
24858;BME280;12935;50.782;6.074;2023-12-04T09:45:32;98582.16;;;4.13;75.20
24858;BME280;12935;50.782;6.074;2023-12-04T09:47:58;98583.66;;;4.10;76.18
24858;BME280;12935;50.782;6.074;2023-12-04T09:50:24;98582.59;;;4.18;76.55
24858;BME280;12935;50.782;6.074;2023-12-04T09:52:49;98578.38;;;4.21;77.73
24858;BME280;12935;50.782;6.074;2023-12-04T09:55:16;98592.22;;;4.16;78.78
24858;BME280;12935;50.782;6.074;2023-12-04T09:57:43;98579.47;;;4.16;79.32
24858;BME280;12935;50.782;6.074;2023-12-04T10:00:13;98572.41;;;4.01;82.42
24858;BME280;12935;50.782;6.074;2023-12-04T10:02:40;98569.38;;;4.10;82.62
24858;BME280;12935;50.782;6.074;2023-12-04T10:05:07;98577.13;;;4.11;83.34
24858;BME280;12935;50.782;6.074;2023-12-04T10:07:32;98563.59;;;4.11;84.57
24858;BME280;12935;50.782;6.074;2023-12-04T10:09:58;98574.78;;;4.10;85.36
24858;BME280;12935;50.782;6.074;2023-12-04T10:12:25;98573.50;;;3.93;87.53
24858;BME280;12935;50.782;6.074;2023-12-04T10:15:07;98570.78;;;3.93;89.72
24858;BME280;12935;50.782;6.074;2023-12-04T10:17:41;98561.13;;;3.92;91.15
24858;BME280;12935;50.782;6.074;2023-12-04T10:20:13;98559.63;;;3.98;91.74
24858;BME280;12935;50.782;6.074;2023-12-04T10:22:55;98556.50;;;3.96;92.86
24858;BME280;12935;50.782;6.074;2023-12-04T10:25:22;98552.63;;;3.94;95.43
24858;BME280;12935;50.782;6.074;2023-12-04T10:27:50;98553.44;;;3.98;95.75
24858;BME280;12935;50.782;6.074;2023-12-04T10:30:25;98556.88;;;3.91;97.46
24858;BME280;12935;50.782;6.074;2023-12-04T10:32:59;98552.63;;;3.90;98.54
24858;BME280;12935;50.782;6.074;2023-12-04T10:35:30;98550.25;;;3.85;99.36
24858;BME280;12935;50.782;6.074;2023-12-04T10:38:02;98547.72;;;3.66;100.00
24858;BME280;12935;50.782;6.074;2023-12-04T10:40:35;98549.00;;;3.75;100.00
24858;BME280;12935;50.782;6.074;2023-12-04T10:43:21;98545.44;;;3.68;100.00
24858;BME280;12935;50.782;6.074;2023-12-04T10:45:48;98550.84;;;3.68;100.00
24858;BME280;12935;50.782;6.074;2023-12-04T10:48:15;98543.88;;;3.67;100.00
24858;BME280;12935;50.782;6.074;2023-12-04T10:50:43;98529.97;;;3.65;100.00
24858;BME280;12935;50.782;6.074;2023-12-04T10:53:11;98521.91;;;3.68;100.00
24858;BME280;12935;50.782;6.074;2023-12-04T10:55:37;98525.06;;;3.74;100.00
24858;BME280;12935;50.782;6.074;2023-12-04T10:58:06;98511.09;;;3.68;100.00
24858;BME280;12935;50.782;6.074;2023-12-04T11:00:42;98495.72;;;3.72;100.00
24858;BME280;12935;50.782;6.074;2023-12-04T11:03:11;98486.56;;;3.87;100.00
24858;BME280;12935;50.782;6.074;2023-12-04T11:05:39;98476.19;;;3.90;100.00
24858;BME280;12935;50.782;6.074;2023-12-04T11:08:09;98472.44;;;4.05;100.00
24858;BME280;12935;50.782;6.074;2023-12-04T11:10:43;98463.53;;;4.04;100.00
24858;BME280;12935;50.782;6.074;2023-12-04T11:13:15;98458.56;;;4.10;100.00
24858;BME280;12935;50.782;6.074;2023-12-04T11:15:47;98445.50;;;4.19;100.00
24858;BME280;12935;50.782;6.074;2023-12-04T11:18:16;98445.53;;;4.22;100.00
24858;BME280;12935;50.782;6.074;2023-12-04T11:20:56;98430.47;;;4.25;100.00
24858;BME280;12935;50.782;6.074;2023-12-04T11:23:23;98420.06;;;4.31;100.00
24858;BME280;12935;50.782;6.074;2023-12-04T11:25:49;98418.19;;;4.38;100.00
24858;BME280;12935;50.782;6.074;2023-12-04T11:28:16;98413.22;;;4.47;100.00
24858;BME280;12935;50.782;6.074;2023-12-04T11:30:42;98404.78;;;4.63;100.00
24858;BME280;12935;50.782;6.074;2023-12-04T11:33:09;98402.47;;;4.72;100.00
24858;BME280;12935;50.782;6.074;2023-12-04T11:35:38;98397.50;;;4.81;100.00
24858;BME280;12935;50.782;6.074;2023-12-04T11:38:05;98381.25;;;4.81;100.00
24858;BME280;12935;50.782;6.074;2023-12-04T11:40:32;98388.22;;;4.82;100.00
24858;BME280;12935;50.782;6.074;2023-12-04T11:42:57;98380.53;;;4.95;100.00
24858;BME280;12935;50.782;6.074;2023-12-04T11:45:23;98383.59;;;4.86;100.00
24858;BME280;12935;50.782;6.074;2023-12-04T11:47:54;98372.00;;;4.86;100.00
24858;BME280;12935;50.782;6.074;2023-12-04T11:50:20;98373.53;;;4.83;100.00
24858;BME280;12935;50.782;6.074;2023-12-04T11:52:47;98372.38;;;4.91;100.00
24858;BME280;12935;50.782;6.074;2023-12-04T11:55:16;98368.19;;;5.12;100.00
24858;BME280;12935;50.782;6.074;2023-12-04T11:57:41;98365.88;;;5.21;100.00
24858;BME280;12935;50.782;6.074;2023-12-04T12:03:00;98365.09;;;5.10;100.00
24858;BME280;12935;50.782;6.074;2023-12-04T12:05:26;98352.31;;;5.00;100.00
24858;BME280;12935;50.782;6.074;2023-12-04T12:07:52;98351.16;;;5.04;100.00
24858;BME280;12935;50.782;6.074;2023-12-04T12:10:18;98350.78;;;5.02;100.00
24858;BME280;12935;50.782;6.074;2023-12-04T12:12:43;98347.31;;;5.02;100.00
24858;BME280;12935;50.782;6.074;2023-12-04T12:15:10;98341.47;;;5.07;100.00
24858;BME280;12935;50.782;6.074;2023-12-04T12:17:40;98338.78;;;5.24;100.00
24858;BME280;12935;50.782;6.074;2023-12-04T12:20:10;98340.72;;;5.38;100.00
24858;BME280;12935;50.782;6.074;2023-12-04T12:22:37;98331.84;;;5.41;100.00
24858;BME280;12935;50.782;6.074;2023-12-04T12:25:07;98325.28;;;5.32;100.00
24858;BME280;12935;50.782;6.074;2023-12-04T12:27:34;98332.63;;;5.31;100.00
24858;BME280;12935;50.782;6.074;2023-12-04T12:30:00;98319.88;;;5.35;100.00
24858;BME280;12935;50.782;6.074;2023-12-04T12:32:26;98323.69;;;5.20;100.00
24858;BME280;12935;50.782;6.074;2023-12-04T12:34:53;98313.66;;;5.20;100.00
24858;BME280;12935;50.782;6.074;2023-12-04T12:37:20;98310.56;;;5.25;100.00
24858;BME280;12935;50.782;6.074;2023-12-04T12:39:46;98298.56;;;5.16;100.00
24858;BME280;12935;50.782;6.074;2023-12-04T12:42:20;98293.56;;;5.18;100.00
24858;BME280;12935;50.782;6.074;2023-12-04T12:44:46;98290.06;;;5.21;100.00
24858;BME280;12935;50.782;6.074;2023-12-04T12:47:14;98283.09;;;5.27;100.00
24858;BME280;12935;50.782;6.074;2023-12-04T12:49:40;98274.97;;;5.23;100.00
24858;BME280;12935;50.782;6.074;2023-12-04T12:52:05;98264.53;;;5.22;100.00
24858;BME280;12935;50.782;6.074;2023-12-04T12:54:37;98268.38;;;5.42;100.00
24858;BME280;12935;50.782;6.074;2023-12-04T12:57:05;98251.34;;;5.42;100.00
24858;BME280;12935;50.782;6.074;2023-12-04T12:59:32;98235.84;;;5.60;100.00
24858;BME280;12935;50.782;6.074;2023-12-04T13:02:01;98236.97;;;5.77;100.00
24858;BME280;12935;50.782;6.074;2023-12-04T13:04:36;98232.28;;;5.84;100.00
24858;BME280;12935;50.782;6.074;2023-12-04T13:07:03;98225.34;;;5.73;100.00